Time;durP1;ratioP1;P1;durP2;ratioP2;P2;SDS_P1;SDS_P2;PMS_P1;PMS_P2;Temp;Humidity;BMP_temperature;BMP_pressure;BME280_temperature;BME280_humidity;BME280_pressure;Samples;Min_cycle;Max_cycle;Signal;HPM_P1;HPM_P2
2023/12/30 00:01:15;;;;;;;0.70;0.70;;;;;;;;;;5078805;28;20204;-65
2023/12/30 00:03:42;;;;;;;1.00;0.70;;;;;;;;;;5078701;28;20211;-65
2023/12/30 00:06:11;;;;;;;0.70;0.70;;;;;;;;;;5078182;28;20306;-65
2023/12/30 00:08:39;;;;;;;0.60;0.60;;;;;;;;;;5077926;28;20208;-65
2023/12/30 00:11:07;;;;;;;0.80;0.70;;;;;;;;;;5077683;28;20204;-67
2023/12/30 00:13:35;;;;;;;0.68;0.68;;;;;;;;;;5078394;28;20204;-65
2023/12/30 00:16:02;;;;;;;0.80;0.73;;;;;;;;;;5078257;28;20260;-65
2023/12/30 00:18:30;;;;;;;0.80;0.80;;;;;;;;;;5078429;28;20212;-66
2023/12/30 00:20:57;;;;;;;0.70;0.70;;;;;;;;;;5077553;28;20244;-65
2023/12/30 00:23:27;;;;;;;0.70;0.70;;;;;;;;;;5078241;28;20235;-65
2023/12/30 00:25:54;;;;;;;0.95;0.70;;;;;;;;;;5078056;28;20200;-65
2023/12/30 00:28:22;;;;;;;0.85;0.63;;;;;;;;;;5077825;28;20204;-65
2023/12/30 00:30:49;;;;;;;0.70;0.70;;;;;;;;;;5077977;28;20204;-65
2023/12/30 00:33:17;;;;;;;1.20;0.50;;;;;;;;;;5077684;28;20208;-65
2023/12/30 00:35:45;;;;;;;0.77;0.77;;;;;;;;;;5077779;28;20232;-65
2023/12/30 00:38:12;;;;;;;0.73;0.70;;;;;;;;;;5077816;28;20549;-66
2023/12/30 00:40:41;;;;;;;0.80;0.80;;;;;;;;;;5078025;28;20215;-66
2023/12/30 00:43:09;;;;;;;0.70;0.70;;;;;;;;;;5078085;28;20611;-66
2023/12/30 00:45:36;;;;;;;0.70;0.60;;;;;;;;;;5077390;28;20216;-65
2023/12/30 00:48:04;;;;;;;0.60;0.60;;;;;;;;;;5077112;28;20204;-65
2023/12/30 00:50:32;;;;;;;0.70;0.70;;;;;;;;;;5077799;28;20235;-65
2023/12/30 00:53:00;;;;;;;0.70;0.70;;;;;;;;;;5077855;28;20597;-65
2023/12/30 00:55:27;;;;;;;1.30;0.90;;;;;;;;;;5077821;28;20220;-65
2023/12/30 00:57:56;;;;;;;0.60;0.60;;;;;;;;;;5078363;28;20499;-65
2023/12/30 01:00:23;;;;;;;0.68;0.60;;;;;;;;;;5077657;28;20236;-66
2023/12/30 01:02:51;;;;;;;0.50;0.50;;;;;;;;;;5077968;28;20570;-65
2023/12/30 01:05:19;;;;;;;0.75;0.75;;;;;;;;;;5078229;28;20242;-65
2023/12/30 01:07:46;;;;;;;0.70;0.70;;;;;;;;;;5077550;28;20212;-65
2023/12/30 01:10:13;;;;;;;0.80;0.80;;;;;;;;;;5077574;28;20227;-65
2023/12/30 01:12:41;;;;;;;0.70;0.70;;;;;;;;;;5077620;28;20211;-65
2023/12/30 01:15:11;;;;;;;0.80;0.60;;;;;;;;;;5077280;28;20606;-65
2023/12/30 01:17:39;;;;;;;0.70;0.70;;;;;;;;;;5077510;28;20255;-65
2023/12/30 01:20:07;;;;;;;0.68;0.68;;;;;;;;;;5077930;28;20245;-66
2023/12/30 01:22:35;;;;;;;1.30;0.77;;;;;;;;;;5077225;28;20207;-65
2023/12/30 01:25:02;;;;;;;0.73;0.70;;;;;;;;;;5077219;28;20589;-65
2023/12/30 01:27:30;;;;;;;0.60;0.60;;;;;;;;;;5077408;28;20230;-65
2023/12/30 01:29:58;;;;;;;0.80;0.80;;;;;;;;;;5077375;28;20216;-65
2023/12/30 01:32:27;;;;;;;0.77;0.75;;;;;;;;;;5077120;28;20208;-65
2023/12/30 01:34:54;;;;;;;0.60;0.60;;;;;;;;;;5077216;28;20463;-65
2023/12/30 01:37:22;;;;;;;0.65;0.65;;;;;;;;;;5077274;28;20204;-66
2023/12/30 01:39:50;;;;;;;0.70;0.70;;;;;;;;;;5077381;28;20203;-65
2023/12/30 01:42:18;;;;;;;0.65;0.55;;;;;;;;;;5076963;28;20801;-65
2023/12/30 01:44:45;;;;;;;0.63;0.63;;;;;;;;;;5077006;28;20736;-65
2023/12/30 01:47:13;;;;;;;0.70;0.70;;;;;;;;;;5076761;28;20200;-65
2023/12/30 01:49:42;;;;;;;0.70;0.70;;;;;;;;;;5077098;28;20239;-65
2023/12/30 01:52:10;;;;;;;0.80;0.80;;;;;;;;;;5077685;28;20236;-65
2023/12/30 01:54:38;;;;;;;0.73;0.70;;;;;;;;;;5077025;28;20208;-65
2023/12/30 01:57:06;;;;;;;0.80;0.80;;;;;;;;;;5077034;28;20632;-65
2023/12/30 01:59:33;;;;;;;0.70;0.70;;;;;;;;;;5080685;28;20239;-65
2023/12/30 02:02:01;;;;;;;1.02;0.80;;;;;;;;;;5101051;28;20204;-65
2023/12/30 02:04:28;;;;;;;0.75;0.75;;;;;;;;;;5101438;28;20261;-65
2023/12/30 02:06:57;;;;;;;1.15;0.63;;;;;;;;;;5101242;28;20290;-65
2023/12/30 02:09:25;;;;;;;1.08;0.75;;;;;;;;;;5100891;28;20286;-65
2023/12/30 02:11:53;;;;;;;1.00;0.70;;;;;;;;;;5101338;28;20643;-65
2023/12/30 02:14:24;;;;;;;0.70;0.70;;;;;;;;;;5100901;28;20591;-66
2023/12/30 02:16:51;;;;;;;0.90;0.80;;;;;;;;;;5100957;28;20288;-66
2023/12/30 02:19:19;;;;;;;0.80;0.70;;;;;;;;;;5100706;28;20265;-65
2023/12/30 02:21:47;;;;;;;0.98;0.70;;;;;;;;;;5100586;28;20545;-65
2023/12/30 02:24:16;;;;;;;0.70;0.70;;;;;;;;;;5100511;28;20294;-65
2023/12/30 02:26:43;;;;;;;0.65;0.57;;;;;;;;;;5100545;28;20200;-65
2023/12/30 02:29:11;;;;;;;0.93;0.80;;;;;;;;;;5100953;28;20211;-65
2023/12/30 02:31:45;;;;;;;0.70;0.60;;;;;;;;;;5101224;28;20208;-65
2023/12/30 02:34:13;;;;;;;0.60;0.60;;;;;;;;;;5101069;28;20210;-65
2023/12/30 02:36:40;;;;;;;0.60;0.60;;;;;;;;;;5100675;28;20289;-65
2023/12/30 02:39:08;;;;;;;0.60;0.60;;;;;;;;;;5100424;28;20311;-65
2023/12/30 02:41:37;;;;;;;0.63;0.63;;;;;;;;;;5100594;28;20491;-65
2023/12/30 02:44:05;;;;;;;0.73;0.60;;;;;;;;;;5100816;28;20257;-65
2023/12/30 02:46:32;;;;;;;0.68;0.60;;;;;;;;;;5100423;28;20195;-65
2023/12/30 02:49:03;;;;;;;0.80;0.60;;;;;;;;;;5100797;28;20286;-65
2023/12/30 02:51:31;;;;;;;0.55;0.55;;;;;;;;;;5100184;28;20291;-65
2023/12/30 02:53:58;;;;;;;0.50;0.50;;;;;;;;;;5100309;28;20211;-65
2023/12/30 02:56:26;;;;;;;0.63;0.63;;;;;;;;;;5100293;28;20292;-65
2023/12/30 02:58:57;;;;;;;0.60;0.57;;;;;;;;;;5100559;28;20475;-65
2023/12/30 03:01:25;;;;;;;0.70;0.60;;;;;;;;;;5100465;28;20230;-65
2023/12/30 03:03:54;;;;;;;0.90;0.77;;;;;;;;;;5100327;28;20590;-65
2023/12/30 03:06:21;;;;;;;0.50;0.50;;;;;;;;;;5099885;28;20478;-66
2023/12/30 03:08:49;;;;;;;0.63;0.50;;;;;;;;;;5099317;28;20278;-65
2023/12/30 03:11:17;;;;;;;0.57;0.50;;;;;;;;;;5099624;28;20632;-65
2023/12/30 03:13:44;;;;;;;0.50;0.50;;;;;;;;;;5100162;28;20204;-65
2023/12/30 03:16:14;;;;;;;0.70;0.70;;;;;;;;;;5100195;28;20262;-65
2023/12/30 03:18:42;;;;;;;0.60;0.50;;;;;;;;;;5099790;28;20213;-65
2023/12/30 03:21:10;;;;;;;0.50;0.50;;;;;;;;;;5099667;28;20242;-65
2023/12/30 03:23:38;;;;;;;0.68;0.68;;;;;;;;;;5100159;28;20539;-66
2023/12/30 03:26:06;;;;;;;0.82;0.60;;;;;;;;;;5099987;28;20261;-66
2023/12/30 03:28:33;;;;;;;0.60;0.50;;;;;;;;;;5099723;28;20211;-66
2023/12/30 03:31:01;;;;;;;0.60;0.60;;;;;;;;;;5099880;28;20268;-66
2023/12/30 03:33:30;;;;;;;0.60;0.60;;;;;;;;;;5099677;28;20227;-64
2023/12/30 03:35:58;;;;;;;0.50;0.50;;;;;;;;;;5099619;28;20631;-66
2023/12/30 03:38:26;;;;;;;1.00;0.50;;;;;;;;;;5099343;28;20203;-64
2023/12/30 03:40:53;;;;;;;0.70;0.68;;;;;;;;;;5099794;28;20211;-64
2023/12/30 03:43:21;;;;;;;0.57;0.40;;;;;;;;;;5099638;28;20225;-65
2023/12/30 03:45:49;;;;;;;0.70;0.60;;;;;;;;;;5099394;28;20203;-65
2023/12/30 03:48:16;;;;;;;1.02;0.70;;;;;;;;;;5099124;28;20203;-65
2023/12/30 03:50:45;;;;;;;0.60;0.55;;;;;;;;;;5099475;28;20204;-64
2023/12/30 03:53:13;;;;;;;0.60;0.60;;;;;;;;;;5099226;28;20215;-65
2023/12/30 03:55:40;;;;;;;0.60;0.60;;;;;;;;;;5099070;28;20742;-65
2023/12/30 03:58:08;;;;;;;1.00;0.60;;;;;;;;;;5098896;28;20609;-65
2023/12/30 04:00:35;;;;;;;0.70;0.50;;;;;;;;;;5098927;28;20227;-65
2023/12/30 04:03:03;;;;;;;0.82;0.60;;;;;;;;;;5098814;28;20536;-65
2023/12/30 04:05:30;;;;;;;0.57;0.50;;;;;;;;;;5098675;28;20306;-65
2023/12/30 04:07:59;;;;;;;0.57;0.50;;;;;;;;;;5099001;28;20199;-65
2023/12/30 04:10:26;;;;;;;0.90;0.52;;;;;;;;;;5098942;28;20204;-66
2023/12/30 04:12:54;;;;;;;1.60;0.50;;;;;;;;;;5099127;28;20582;-65
2023/12/30 04:15:23;;;;;;;0.73;0.52;;;;;;;;;;5098784;28;20239;-65
2023/12/30 04:17:51;;;;;;;0.80;0.57;;;;;;;;;;5098936;28;20223;-65
2023/12/30 04:20:18;;;;;;;0.73;0.55;;;;;;;;;;5098553;28;20211;-65
2023/12/30 04:22:46;;;;;;;0.65;0.60;;;;;;;;;;5098623;28;20208;-65
2023/12/30 04:25:15;;;;;;;0.57;0.52;;;;;;;;;;5098448;28;20239;-65
2023/12/30 04:27:43;;;;;;;0.50;0.50;;;;;;;;;;5098438;28;20467;-66
2023/12/30 04:30:11;;;;;;;0.60;0.60;;;;;;;;;;5098850;28;20482;-65
2023/12/30 04:32:38;;;;;;;0.60;0.60;;;;;;;;;;5098381;28;20207;-65
2023/12/30 04:35:06;;;;;;;0.50;0.50;;;;;;;;;;5098790;28;20662;-65
2023/12/30 04:37:34;;;;;;;0.50;0.50;;;;;;;;;;5098291;28;20223;-65
2023/12/30 04:40:01;;;;;;;1.15;0.50;;;;;;;;;;5098564;28;20203;-64
2023/12/30 04:42:30;;;;;;;0.65;0.60;;;;;;;;;;5098382;28;20269;-65
2023/12/30 04:44:57;;;;;;;0.65;0.60;;;;;;;;;;5098387;28;20254;-65
2023/12/30 04:47:24;;;;;;;0.57;0.50;;;;;;;;;;5098213;28;20203;-66
2023/12/30 04:49:52;;;;;;;0.52;0.50;;;;;;;;;;5098156;28;20211;-65
2023/12/30 04:52:19;;;;;;;0.80;0.57;;;;;;;;;;5098253;28;20298;-65
2023/12/30 04:54:48;;;;;;;0.65;0.65;;;;;;;;;;5098054;28;20204;-65
2023/12/30 04:57:16;;;;;;;0.63;0.60;;;;;;;;;;5097613;28;20265;-65
2023/12/30 04:59:45;;;;;;;0.52;0.50;;;;;;;;;;5097568;28;20703;-65
2023/12/30 05:02:12;;;;;;;0.60;0.60;;;;;;;;;;5097641;28;20242;-65
2023/12/30 05:04:39;;;;;;;0.55;0.55;;;;;;;;;;5098318;28;20242;-65
2023/12/30 05:07:07;;;;;;;0.60;0.60;;;;;;;;;;5098154;28;20514;-65
2023/12/30 05:09:36;;;;;;;0.77;0.52;;;;;;;;;;5098139;28;20203;-65
2023/12/30 05:12:03;;;;;;;0.85;0.70;;;;;;;;;;5097779;28;20211;-65
2023/12/30 05:14:30;;;;;;;0.60;0.60;;;;;;;;;;5098121;28;20210;-65
2023/12/30 05:16:59;;;;;;;0.60;0.50;;;;;;;;;;5098213;28;20255;-65
2023/12/30 05:19:26;;;;;;;0.65;0.52;;;;;;;;;;5097738;28;20212;-65
2023/12/30 05:21:55;;;;;;;0.60;0.60;;;;;;;;;;5097973;28;20204;-65
2023/12/30 05:24:22;;;;;;;0.85;0.63;;;;;;;;;;5097201;28;20196;-65
2023/12/30 05:26:49;;;;;;;0.77;0.40;;;;;;;;;;5097814;28;20199;-65
2023/12/30 05:29:17;;;;;;;0.70;0.60;;;;;;;;;;5097830;28;20207;-65
2023/12/30 05:31:44;;;;;;;0.80;0.60;;;;;;;;;;5097751;28;20203;-65
2023/12/30 05:34:13;;;;;;;0.50;0.50;;;;;;;;;;5101424;28;20199;-65
2023/12/30 05:36:41;;;;;;;0.77;0.50;;;;;;;;;;5102008;28;20235;-65
2023/12/30 05:39:08;;;;;;;0.63;0.60;;;;;;;;;;5100555;28;20208;-65
2023/12/30 05:41:35;;;;;;;0.85;0.60;;;;;;;;;;5101440;28;20203;-65
2023/12/30 05:44:03;;;;;;;0.50;0.50;;;;;;;;;;5102149;28;20203;-65
2023/12/30 05:46:30;;;;;;;0.68;0.45;;;;;;;;;;5101778;28;20215;-66
2023/12/30 05:48:58;;;;;;;1.23;0.60;;;;;;;;;;5101603;28;20585;-65
2023/12/30 05:51:27;;;;;;;0.77;0.50;;;;;;;;;;5101109;28;20227;-65
2023/12/30 05:53:54;;;;;;;1.13;0.70;;;;;;;;;;5101080;28;20623;-65
2023/12/30 05:56:23;;;;;;;0.50;0.50;;;;;;;;;;5101202;28;20219;-66
2023/12/30 05:58:50;;;;;;;0.82;0.57;;;;;;;;;;5101441;28;20502;-65
2023/12/30 06:01:17;;;;;;;1.00;0.80;;;;;;;;;;5101160;28;20463;-65
2023/12/30 06:03:45;;;;;;;0.50;0.50;;;;;;;;;;5101279;28;20214;-65
2023/12/30 06:06:12;;;;;;;1.05;0.50;;;;;;;;;;5100858;28;20215;-65
2023/12/30 06:08:41;;;;;;;0.43;0.40;;;;;;;;;;5101020;28;20200;-65
2023/12/30 06:11:08;;;;;;;0.77;0.70;;;;;;;;;;5100992;28;20620;-65
2023/12/30 06:13:36;;;;;;;0.77;0.57;;;;;;;;;;5101070;28;20203;-65
2023/12/30 06:16:03;;;;;;;0.47;0.47;;;;;;;;;;5100840;28;20208;-65
2023/12/30 06:18:31;;;;;;;0.45;0.45;;;;;;;;;;5101044;28;20627;-65
2023/12/30 06:20:59;;;;;;;0.80;0.63;;;;;;;;;;5100681;28;20203;-65
2023/12/30 06:23:28;;;;;;;0.90;0.52;;;;;;;;;;5100275;28;20208;-65
2023/12/30 06:25:57;;;;;;;0.75;0.50;;;;;;;;;;5100948;28;20211;-65
2023/12/30 06:28:26;;;;;;;1.05;0.50;;;;;;;;;;5100837;28;20203;-65
2023/12/30 06:30:54;;;;;;;0.50;0.50;;;;;;;;;;5101107;28;20215;-65
2023/12/30 06:33:22;;;;;;;0.95;0.50;;;;;;;;;;5100442;28;20204;-65
2023/12/30 06:35:49;;;;;;;0.60;0.60;;;;;;;;;;5100748;28;20203;-65
2023/12/30 06:38:16;;;;;;;0.40;0.40;;;;;;;;;;5100923;28;20228;-65
2023/12/30 06:40:45;;;;;;;0.55;0.50;;;;;;;;;;5100598;28;20451;-65
2023/12/30 06:43:14;;;;;;;0.75;0.50;;;;;;;;;;5100585;28;20200;-65
2023/12/30 06:45:41;;;;;;;0.55;0.55;;;;;;;;;;5100703;28;20199;-64
2023/12/30 06:48:09;;;;;;;0.50;0.50;;;;;;;;;;5100396;28;20204;-65
2023/12/30 06:50:36;;;;;;;0.60;0.60;;;;;;;;;;5100470;28;20210;-65
2023/12/30 06:53:04;;;;;;;0.82;0.63;;;;;;;;;;5099946;28;20231;-65
2023/12/30 06:55:31;;;;;;;0.60;0.50;;;;;;;;;;5100587;28;20533;-65
2023/12/30 06:57:59;;;;;;;0.88;0.50;;;;;;;;;;5100243;28;20506;-65
2023/12/30 07:00:28;;;;;;;0.90;0.60;;;;;;;;;;5100070;28;20316;-65
2023/12/30 07:02:55;;;;;;;0.50;0.50;;;;;;;;;;5100427;28;20290;-65
2023/12/30 07:05:22;;;;;;;0.80;0.60;;;;;;;;;;5099972;28;20204;-65
2023/12/30 07:07:51;;;;;;;1.55;0.60;;;;;;;;;;5099888;28;20210;-65
2023/12/30 07:10:18;;;;;;;0.60;0.60;;;;;;;;;;5099757;28;20615;-65
2023/12/30 07:12:46;;;;;;;0.65;0.55;;;;;;;;;;5099542;28;20214;-64
2023/12/30 07:15:13;;;;;;;0.88;0.50;;;;;;;;;;5100396;28;20203;-64
2023/12/30 07:17:43;;;;;;;0.80;0.57;;;;;;;;;;5099875;28;20227;-65
2023/12/30 07:20:10;;;;;;;0.55;0.45;;;;;;;;;;5099551;28;20208;-65
2023/12/30 07:22:38;;;;;;;0.45;0.43;;;;;;;;;;5099477;28;20208;-65
2023/12/30 07:25:06;;;;;;;0.82;0.50;;;;;;;;;;5099466;28;20215;-65
2023/12/30 07:27:33;;;;;;;0.63;0.52;;;;;;;;;;5100127;28;20199;-65
2023/12/30 07:30:01;;;;;;;0.70;0.60;;;;;;;;;;5099282;28;20238;-67
2023/12/30 07:32:28;;;;;;;0.82;0.70;;;;;;;;;;5099686;28;20211;-65
2023/12/30 07:34:57;;;;;;;0.60;0.60;;;;;;;;;;5099759;28;20254;-65
2023/12/30 07:37:24;;;;;;;0.73;0.50;;;;;;;;;;5099171;28;20239;-65
2023/12/30 07:39:53;;;;;;;0.50;0.50;;;;;;;;;;5099803;28;20203;-65
2023/12/30 07:42:25;;;;;;;0.40;0.40;;;;;;;;;;5099213;28;20626;-67
2023/12/30 07:44:54;;;;;;;0.75;0.60;;;;;;;;;;5099082;28;20298;-65
2023/12/30 07:47:21;;;;;;;0.60;0.40;;;;;;;;;;5097948;28;20494;-66
2023/12/30 07:49:49;;;;;;;0.73;0.68;;;;;;;;;;5099287;28;20578;-65
2023/12/30 07:52:18;;;;;;;0.55;0.55;;;;;;;;;;5099088;28;20211;-65
2023/12/30 07:54:45;;;;;;;0.70;0.60;;;;;;;;;;5098860;28;20585;-66
2023/12/30 07:57:13;;;;;;;0.57;0.57;;;;;;;;;;5098098;28;20552;-65
2023/12/30 07:59:41;;;;;;;0.45;0.40;;;;;;;;;;5098324;28;20385;-67
2023/12/30 08:02:09;;;;;;;0.82;0.50;;;;;;;;;;5098879;28;20265;-65
2023/12/30 08:04:36;;;;;;;0.45;0.45;;;;;;;;;;5098280;28;20235;-65
2023/12/30 08:07:04;;;;;;;1.13;0.60;;;;;;;;;;5098355;28;20204;-65
2023/12/30 08:09:33;;;;;;;0.70;0.47;;;;;;;;;;5098708;28;20204;-65
2023/12/30 08:12:00;;;;;;;0.50;0.50;;;;;;;;;;5098931;28;20568;-65
2023/12/30 08:14:26;;;;;;;0.65;0.50;;;;;;;;;;5099148;28;20284;-65
2023/12/30 08:16:54;;;;;;;0.60;0.40;;;;;;;;;;5098968;28;20290;-65
2023/12/30 08:19:21;;;;;;;1.00;0.40;;;;;;;;;;5098326;28;20223;-65
2023/12/30 08:21:49;;;;;;;0.40;0.40;;;;;;;;;;5098423;28;20210;-65
2023/12/30 08:24:19;;;;;;;0.85;0.50;;;;;;;;;;5097995;28;20204;-65
2023/12/30 08:26:47;;;;;;;0.60;0.50;;;;;;;;;;5098027;28;20203;-65
2023/12/30 08:29:15;;;;;;;0.75;0.40;;;;;;;;;;5097743;28;20203;-65
2023/12/30 08:31:45;;;;;;;0.60;0.50;;;;;;;;;;5098067;28;20243;-65
2023/12/30 08:34:13;;;;;;;0.40;0.40;;;;;;;;;;5098133;28;20203;-65
2023/12/30 08:36:40;;;;;;;0.50;0.47;;;;;;;;;;5098111;28;20207;-66
2023/12/30 08:39:08;;;;;;;0.88;0.50;;;;;;;;;;5097586;28;20238;-65
2023/12/30 08:41:35;;;;;;;0.50;0.45;;;;;;;;;;5098274;28;20204;-65
2023/12/30 08:44:04;;;;;;;0.50;0.50;;;;;;;;;;5097710;28;20610;-65
2023/12/30 08:46:31;;;;;;;0.40;0.40;;;;;;;;;;5097755;28;20212;-65
2023/12/30 08:48:59;;;;;;;0.60;0.50;;;;;;;;;;5097570;28;20210;-65
2023/12/30 08:51:28;;;;;;;0.57;0.55;;;;;;;;;;5097681;28;20299;-65
2023/12/30 08:53:56;;;;;;;0.70;0.63;;;;;;;;;;5097153;28;20588;-65
2023/12/30 08:56:24;;;;;;;0.63;0.52;;;;;;;;;;5097270;28;20243;-65
2023/12/30 08:58:51;;;;;;;1.15;0.60;;;;;;;;;;5097132;28;20235;-65
2023/12/30 09:01:21;;;;;;;0.40;0.40;;;;;;;;;;5097092;28;20214;-65
2023/12/30 09:03:48;;;;;;;0.50;0.50;;;;;;;;;;5097207;28;20242;-65
2023/12/30 09:06:16;;;;;;;0.80;0.57;;;;;;;;;;5097215;28;20214;-65
2023/12/30 09:08:43;;;;;;;0.50;0.50;;;;;;;;;;5096499;28;20585;-66
2023/12/30 09:11:18;;;;;;;0.40;0.35;;;;;;;;;;5097757;28;20199;-65
2023/12/30 09:13:46;;;;;;;0.50;0.50;;;;;;;;;;5097212;28;20286;-66
2023/12/30 09:16:13;;;;;;;0.40;0.40;;;;;;;;;;5096925;28;20207;-65
2023/12/30 09:18:42;;;;;;;0.50;0.45;;;;;;;;;;5096141;28;20683;-66
2023/12/30 09:21:09;;;;;;;0.50;0.50;;;;;;;;;;5096985;28;20203;-66
2023/12/30 09:23:37;;;;;;;0.50;0.45;;;;;;;;;;5097193;28;20577;-66
2023/12/30 09:26:04;;;;;;;0.80;0.40;;;;;;;;;;5097348;28;20302;-66
2023/12/30 09:28:33;;;;;;;0.52;0.47;;;;;;;;;;5097000;28;20203;-66
2023/12/30 09:31:00;;;;;;;0.50;0.50;;;;;;;;;;5096599;28;20206;-66
2023/12/30 09:39:15;;;;;;;0.43;0.40;;;;;;;;;;5150765;23;20237;-64
2023/12/30 09:41:42;;;;;;;0.50;0.40;;;;;;;;;;5016405;28;20564;-64
2023/12/30 09:44:11;;;;;;;0.77;0.50;;;;;;;;;;5016482;28;20206;-64
2023/12/30 09:46:39;;;;;;;0.50;0.43;;;;;;;;;;5016485;28;20250;-65
2023/12/30 09:49:06;;;;;;;0.50;0.50;;;;;;;;;;5016535;28;20212;-65
2023/12/30 09:51:34;;;;;;;0.55;0.52;;;;;;;;;;5016406;28;20276;-65
2023/12/30 09:54:02;;;;;;;0.60;0.50;;;;;;;;;;5016580;28;20206;-65
2023/12/30 09:56:31;;;;;;;0.60;0.45;;;;;;;;;;5015888;28;20213;-65
2023/12/30 09:58:58;;;;;;;0.50;0.50;;;;;;;;;;5015725;28;20231;-65
2023/12/30 10:01:27;;;;;;;0.40;0.40;;;;;;;;;;5016383;28;20738;-65
2023/12/30 10:03:54;;;;;;;0.65;0.50;;;;;;;;;;5015577;28;20198;-65
2023/12/30 10:06:23;;;;;;;0.57;0.50;;;;;;;;;;5015916;28;20494;-65
2023/12/30 10:08:50;;;;;;;0.40;0.40;;;;;;;;;;5016378;28;20276;-65
2023/12/30 10:11:18;;;;;;;0.40;0.40;;;;;;;;;;5015563;28;20206;-65
2023/12/30 10:13:47;;;;;;;0.73;0.50;;;;;;;;;;5015953;28;20207;-65
2023/12/30 10:16:15;;;;;;;0.40;0.40;;;;;;;;;;5015542;28;20203;-65
2023/12/30 10:18:42;;;;;;;0.70;0.50;;;;;;;;;;5017436;28;20332;-65
2023/12/30 10:21:09;;;;;;;0.55;0.55;;;;;;;;;;5019673;28;20202;-65
2023/12/30 10:23:37;;;;;;;0.68;0.50;;;;;;;;;;5019431;28;20213;-65
2023/12/30 10:26:05;;;;;;;1.25;0.50;;;;;;;;;;5020019;28;20206;-65
2023/12/30 10:28:33;;;;;;;0.52;0.47;;;;;;;;;;5019736;28;20297;-65
2023/12/30 10:31:05;;;;;;;0.47;0.47;;;;;;;;;;5019466;28;20654;-65
2023/12/30 10:33:33;;;;;;;0.50;0.50;;;;;;;;;;5019301;28;20491;-65
2023/12/30 10:36:00;;;;;;;1.23;0.60;;;;;;;;;;5019322;28;20206;-65
2023/12/30 10:38:28;;;;;;;0.40;0.40;;;;;;;;;;5018590;28;20234;-65
2023/12/30 10:40:56;;;;;;;1.10;0.47;;;;;;;;;;5019480;28;20210;-65
2023/12/30 10:43:23;;;;;;;0.63;0.50;;;;;;;;;;5018875;28;20205;-65
2023/12/30 10:45:56;;;;;;;1.58;0.50;;;;;;;;;;5018802;28;20495;-65
2023/12/30 10:48:24;;;;;;;1.55;0.60;;;;;;;;;;5018986;28;20521;-65
2023/12/30 10:50:53;;;;;;;1.13;0.55;;;;;;;;;;5018809;28;20630;-65
2023/12/30 10:53:25;;;;;;;0.50;0.50;;;;;;;;;;5018340;28;20297;-64
2023/12/30 10:55:54;;;;;;;1.08;0.70;;;;;;;;;;5017721;28;20623;-64
2023/12/30 10:58:23;;;;;;;0.90;0.70;;;;;;;;;;5018613;28;20234;-64
2023/12/30 11:00:53;;;;;;;0.93;0.57;;;;;;;;;;5018644;28;20272;-65
2023/12/30 11:03:21;;;;;;;0.68;0.60;;;;;;;;;;5018465;28;20229;-65
2023/12/30 11:05:55;;;;;;;0.65;0.60;;;;;;;;;;5018337;28;20592;-65
2023/12/30 11:08:23;;;;;;;0.65;0.60;;;;;;;;;;5018455;28;20201;-65
2023/12/30 11:10:52;;;;;;;0.50;0.50;;;;;;;;;;5017490;28;20206;-65
2023/12/30 11:13:20;;;;;;;1.40;0.70;;;;;;;;;;5018363;28;20610;-65
2023/12/30 11:15:48;;;;;;;0.80;0.55;;;;;;;;;;5018188;28;20281;-65
2023/12/30 11:18:15;;;;;;;0.60;0.45;;;;;;;;;;5018404;28;20674;-65
2023/12/30 11:20:45;;;;;;;0.70;0.60;;;;;;;;;;5018805;28;20216;-66
2023/12/30 11:23:16;;;;;;;0.52;0.50;;;;;;;;;;5018790;28;20257;-64
2023/12/30 11:25:44;;;;;;;0.70;0.60;;;;;;;;;;5018949;28;20670;-65
2023/12/30 11:28:16;;;;;;;1.20;0.60;;;;;;;;;;5018657;28;20492;-65
2023/12/30 11:30:45;;;;;;;0.75;0.60;;;;;;;;;;5017324;28;20206;-65
2023/12/30 11:33:13;;;;;;;0.95;0.50;;;;;;;;;;5018738;28;20234;-65
2023/12/30 11:35:41;;;;;;;0.98;0.50;;;;;;;;;;5018252;28;20272;-65
2023/12/30 11:38:08;;;;;;;0.70;0.60;;;;;;;;;;5017112;28;20244;-65
2023/12/30 11:40:41;;;;;;;1.63;0.57;;;;;;;;;;5017371;28;20225;-65
2023/12/30 11:43:10;;;;;;;1.20;0.50;;;;;;;;;;5016821;28;20581;-65
2023/12/30 11:45:37;;;;;;;0.90;0.60;;;;;;;;;;5017605;28;20316;-65
2023/12/30 11:48:05;;;;;;;1.08;0.88;;;;;;;;;;5016630;28;20206;-65
2023/12/30 11:50:33;;;;;;;1.20;0.60;;;;;;;;;;5017625;28;20736;-65
2023/12/30 11:53:01;;;;;;;0.55;0.50;;;;;;;;;;5018005;28;20662;-65
2023/12/30 11:55:29;;;;;;;1.75;0.52;;;;;;;;;;5017281;28;20213;-65
2023/12/30 11:57:58;;;;;;;1.50;0.52;;;;;;;;;;5017657;28;20320;-65
2023/12/30 12:00:26;;;;;;;1.60;0.70;;;;;;;;;;5017648;28;20265;-65
2023/12/30 12:02:54;;;;;;;1.00;0.60;;;;;;;;;;5017192;28;20210;-65
2023/12/30 12:05:22;;;;;;;0.93;0.68;;;;;;;;;;5016843;28;20202;-65
2023/12/30 12:07:50;;;;;;;0.90;0.80;;;;;;;;;;5018060;28;20207;-65
2023/12/30 12:10:17;;;;;;;1.60;0.68;;;;;;;;;;5017319;28;20198;-65
2023/12/30 12:12:45;;;;;;;1.63;0.75;;;;;;;;;;5017169;28;20210;-65
2023/12/30 12:15:22;;;;;;;1.08;0.50;;;;;;;;;;5016246;28;20214;-64
2023/12/30 12:17:52;;;;;;;0.93;0.60;;;;;;;;;;5016900;28;20206;-65
2023/12/30 12:20:19;;;;;;;1.30;0.60;;;;;;;;;;5016813;28;20325;-65
2023/12/30 12:22:47;;;;;;;1.48;0.65;;;;;;;;;;5016399;28;20510;-65
2023/12/30 12:25:14;;;;;;;1.40;0.60;;;;;;;;;;5016826;28;20206;-65
2023/12/30 12:27:42;;;;;;;1.60;0.60;;;;;;;;;;5015988;28;20206;-65
2023/12/30 12:30:10;;;;;;;1.75;0.80;;;;;;;;;;5016518;28;20210;-65
2023/12/30 12:32:38;;;;;;;2.08;0.80;;;;;;;;;;5016808;28;20206;-65
2023/12/30 12:35:06;;;;;;;0.60;0.55;;;;;;;;;;5015416;28;20233;-65
2023/12/30 12:37:34;;;;;;;0.70;0.70;;;;;;;;;;5016614;28;20231;-65
2023/12/30 12:40:01;;;;;;;1.92;0.60;;;;;;;;;;5016982;28;20238;-65
2023/12/30 12:42:28;;;;;;;0.80;0.70;;;;;;;;;;5016107;28;20376;-64
2023/12/30 12:44:56;;;;;;;1.15;0.68;;;;;;;;;;5016176;28;20207;-65
2023/12/30 12:47:23;;;;;;;2.55;1.10;;;;;;;;;;5016915;28;20206;-64
2023/12/30 12:49:52;;;;;;;0.95;0.80;;;;;;;;;;5016418;28;20195;-65
2023/12/30 12:52:19;;;;;;;2.42;0.90;;;;;;;;;;5016755;28;20597;-65
2023/12/30 12:54:47;;;;;;;0.70;0.70;;;;;;;;;;5016590;28;20211;-65
2023/12/30 12:57:14;;;;;;;1.73;0.95;;;;;;;;;;5016209;28;20206;-65
2023/12/30 12:59:42;;;;;;;0.70;0.70;;;;;;;;;;5015996;28;20222;-65
2023/12/30 13:02:09;;;;;;;1.00;0.70;;;;;;;;;;5015826;28;20210;-65
2023/12/30 13:04:37;;;;;;;1.55;0.90;;;;;;;;;;5016521;28;20588;-65
2023/12/30 13:07:06;;;;;;;4.05;0.90;;;;;;;;;;5016459;28;20280;-65
2023/12/30 13:09:45;;;;;;;0.77;0.70;;;;;;;;;;5016343;28;20218;-65
2023/12/30 13:12:14;;;;;;;0.93;0.77;;;;;;;;;;5016287;28;20202;-65
2023/12/30 13:14:41;;;;;;;1.38;1.10;;;;;;;;;;5015502;28;20204;-65
2023/12/30 13:17:12;;;;;;;1.70;0.82;;;;;;;;;;5014736;28;20202;-65
2023/12/30 13:19:40;;;;;;;0.73;0.52;;;;;;;;;;5015990;28;20281;-65
2023/12/30 13:22:09;;;;;;;1.95;0.90;;;;;;;;;;5015586;28;20206;-65
2023/12/30 13:24:37;;;;;;;1.20;0.60;;;;;;;;;;5015934;28;20213;-65
2023/12/30 13:27:05;;;;;;;1.48;0.70;;;;;;;;;;5015113;28;20206;-65
2023/12/30 13:29:33;;;;;;;1.88;0.90;;;;;;;;;;5014931;28;20225;-65
2023/12/30 13:32:00;;;;;;;1.20;0.80;;;;;;;;;;5015485;28;20207;-65
2023/12/30 13:34:29;;;;;;;1.25;0.90;;;;;;;;;;5014735;28;20234;-65
2023/12/30 13:36:57;;;;;;;1.05;0.65;;;;;;;;;;5015846;28;20211;-65
2023/12/30 13:39:26;;;;;;;1.35;0.70;;;;;;;;;;5016398;28;20242;-65
2023/12/30 13:41:56;;;;;;;1.80;0.80;;;;;;;;;;5016044;28;20213;-65
2023/12/30 13:44:23;;;;;;;1.08;0.70;;;;;;;;;;5016397;28;20304;-65
2023/12/30 13:47:00;;;;;;;1.45;1.10;;;;;;;;;;5015549;28;20206;-65
2023/12/30 13:52:15;;;;;;;2.03;0.93;;;;;;;;;;5015190;28;20345;-65
2023/12/30 13:54:45;;;;;;;1.27;0.90;;;;;;;;;;5018643;28;20213;-65
2023/12/30 13:57:13;;;;;;;1.50;0.88;;;;;;;;;;5019507;28;20228;-65
2023/12/30 13:59:47;;;;;;;1.00;0.70;;;;;;;;;;5020007;28;20225;-65
2023/12/30 14:02:17;;;;;;;0.93;0.80;;;;;;;;;;5019208;28;20213;-65
2023/12/30 14:04:47;;;;;;;0.70;0.70;;;;;;;;;;5018960;28;20213;-65
2023/12/30 14:07:18;;;;;;;1.70;0.75;;;;;;;;;;5018428;28;20272;-65
2023/12/30 14:09:54;;;;;;;2.38;0.73;;;;;;;;;;5017995;28;20205;-65
2023/12/30 14:12:23;;;;;;;1.38;0.70;;;;;;;;;;5018926;28;20268;-65
2023/12/30 14:14:54;;;;;;;0.70;0.70;;;;;;;;;;5018274;28;20206;-65
2023/12/30 14:17:23;;;;;;;1.25;0.60;;;;;;;;;;5017601;28;20207;-65
2023/12/30 14:19:51;;;;;;;1.58;0.70;;;;;;;;;;5018102;28;20230;-65
2023/12/30 14:22:19;;;;;;;1.75;0.95;;;;;;;;;;5018254;28;20217;-65
2023/12/30 14:24:48;;;;;;;1.17;0.88;;;;;;;;;;5018281;28;20202;-65
2023/12/30 14:27:16;;;;;;;1.20;0.80;;;;;;;;;;5018487;28;20225;-65
2023/12/30 14:29:44;;;;;;;1.25;0.77;;;;;;;;;;5018325;28;20194;-65
2023/12/30 14:32:13;;;;;;;1.27;0.80;;;;;;;;;;5018459;28;20207;-65
2023/12/30 14:34:42;;;;;;;1.75;0.70;;;;;;;;;;5017688;28;20206;-65
2023/12/30 14:37:09;;;;;;;1.10;0.80;;;;;;;;;;5017570;28;20670;-65
2023/12/30 14:39:37;;;;;;;0.63;0.63;;;;;;;;;;5017434;28;20431;-65
2023/12/30 14:42:06;;;;;;;1.80;0.80;;;;;;;;;;5017330;28;20581;-65
2023/12/30 14:44:33;;;;;;;1.23;0.80;;;;;;;;;;5017203;28;20278;-65
2023/12/30 14:47:01;;;;;;;0.85;0.77;;;;;;;;;;5017725;28;20213;-66
2023/12/30 14:49:29;;;;;;;1.17;0.80;;;;;;;;;;5017448;28;20301;-65
2023/12/30 14:51:56;;;;;;;1.20;0.70;;;;;;;;;;5018612;28;20206;-65
2023/12/30 14:54:23;;;;;;;1.15;0.70;;;;;;;;;;5018528;28;20244;-65
2023/12/30 14:56:51;;;;;;;0.95;0.80;;;;;;;;;;5016868;28;20256;-65